world map with EXT marked

EXT - Airport

This information may not be accurate or current and is not valid for navigation or flight planning. No warranty of fitness for any purpose is made or implied.

flag of Englandflag of United Kingdom

Donate via PayPal

Additional information is available on the NEW Great Circle Mapper

Location
City:  Exeter, Devonshire, England, United Kingdom
Name:Exeter International Airport
ICAO / IATA:EGTE / EXT

Details
Type:Airport (Aerodrome, Airfield)
Use:Public/Civil
Latitude:50°44'04"N (50.734444)
Longitude:3°24'50"W (-3.413888)
Datum:WGS 1984
Elevation:102 ft (31 m)
Runways:2
Longest:6834 × 151 ft (2083 × 46 m)

Time
Timezone:UTC+0 (DST+3)
Local Time:

Weather
METAR:EGTE  232220Z 20005KT 180V240 9999 BKN018 11/09 Q1017
TAF:EGTE  (expired)

Related Locations
Nearby:
Farthest:NZDC: 11997 mi / 19307 km
Dunedin [City Heliport], OTA, NZ

Find:

   beyond  
but within

Other Information
Maps:
Sources:

  


 


Great Circle Mapper   Great Circle Mapper
Great Circle Mapper FAQ   Great Circle Mapper FAQ
  Karl's Home Page
KLSē   KLSē Home
   GC on Facebook
Airlines of the World   Airlines of the World
Donate via PayPal


Copyright © 2004-2017, Karl L. Swartz. All rights reserved.
All trademarks mentioned herein belong to their respective owners.

Please see credits for attribution and copyright information.

Karl Swartz <karl@kls2.com>
  Powered by FreeBSD
Valid HTML 4.01!
Labeled with ICRA
hCard Microformat
Geo Microformat